Time;durP1;ratioP1;P1;durP2;ratioP2;P2;SDS_P1;SDS_P2;PMS_P1;PMS_P2;Temp;Humidity;BMP_temperature;BMP_pressure;BME280_temperature;BME280_humidity;BME280_pressure;Samples;Min_cycle;Max_cycle;Signal;HPM_P1;HPM_P2
2022/01/11 00:00:23;;;;;;;31.40;18.00;;;1.00;99.90;;;;;;5110632;28;20055;-70
2022/01/11 00:02:50;;;;;;;31.88;17.27;;;0.90;99.90;;;;;;5092812;28;20476;-70
2022/01/11 00:05:24;;;;;;;36.85;16.95;;;0.90;99.90;;;;;;5093167;28;20488;-70
2022/01/11 00:07:51;;;;;;;27.60;16.67;;;0.90;99.90;;;;;;5092274;28;20122;-70
2022/01/11 00:10:26;;;;;;;46.03;18.58;;;1.00;99.90;;;;;;5093373;28;20051;-70
2022/01/11 00:12:52;;;;;;;35.63;17.17;;;0.90;99.90;;;;;;5092909;28;20058;-70
2022/01/11 00:15:18;;;;;;;39.25;18.02;;;0.80;99.90;;;;;;5093191;28;20051;-70
2022/01/11 00:17:44;;;;;;;40.05;18.70;;;0.80;99.90;;;;;;5111253;28;20565;-70
2022/01/11 00:20:13;;;;;;;65.57;17.67;;;0.80;99.90;;;;;;5093105;28;20040;-70
2022/01/11 00:22:57;;;;;;;44.45;16.58;;;0.80;99.90;;;;;;5092769;28;20036;-70
2022/01/11 00:25:23;;;;;;;71.32;17.05;;;0.70;99.90;;;;;;5093154;28;20048;-70
2022/01/11 00:27:48;;;;;;;33.28;16.45;;;0.70;99.90;;;;;;5111291;28;20148;-70
2022/01/11 00:30:14;;;;;;;32.58;16.90;;;0.80;99.90;;;;;;5093019;28;20044;-70
2022/01/11 00:32:45;;;;;;;31.60;18.23;;;0.80;99.90;;;;;;5092580;28;20540;-70
2022/01/11 00:35:15;;;;;;;29.55;16.58;;;0.80;99.90;;;;;;5092946;28;20122;-70
2022/01/11 00:37:41;;;;;;;29.38;16.77;;;0.80;99.90;;;;;;5092931;28;20046;-70
2022/01/11 00:40:08;;;;;;;44.58;18.60;;;0.80;99.90;;;;;;5093029;28;20035;-70
2022/01/11 00:42:34;;;;;;;38.53;17.95;;;0.80;99.90;;;;;;5092677;28;20048;-70
2022/01/11 00:45:02;;;;;;;53.63;19.15;;;0.80;99.90;;;;;;5092827;28;20093;-70
2022/01/11 00:47:28;;;;;;;97.50;21.38;;;0.70;99.90;;;;;;5111177;28;20039;-70
2022/01/11 00:49:54;;;;;;;36.67;16.42;;;0.80;99.90;;;;;;5111020;28;20509;-70
2022/01/11 00:52:19;;;;;;;49.88;17.40;;;0.70;99.90;;;;;;5110735;28;20376;-70
2022/01/11 00:54:45;;;;;;;31.48;17.20;;;0.70;99.90;;;;;;5092953;28;20126;-70
2022/01/11 00:57:11;;;;;;;42.08;18.92;;;0.70;99.90;;;;;;5092555;28;20055;-70
2022/01/11 00:59:36;;;;;;;30.55;17.40;;;0.90;99.90;;;;;;5092945;28;20047;-70
2022/01/11 01:02:02;;;;;;;40.83;18.20;;;1.00;99.90;;;;;;5092603;28;20082;-70
2022/01/11 01:04:28;;;;;;;46.88;18.40;;;1.00;99.90;;;;;;5110898;28;20040;-70
2022/01/11 01:06:53;;;;;;;43.50;18.42;;;1.00;99.90;;;;;;5092678;28;20036;-70
2022/01/11 01:09:19;;;;;;;31.67;16.65;;;0.90;99.90;;;;;;5092604;28;20040;-70
2022/01/11 01:11:46;;;;;;;38.47;16.98;;;0.90;99.90;;;;;;5092169;28;20040;-70
2022/01/11 01:14:12;;;;;;;35.35;18.35;;;0.90;99.90;;;;;;5110839;28;20051;-70
2022/01/11 01:16:38;;;;;;;37.25;17.67;;;0.90;99.90;;;;;;5092889;28;20047;-70
2022/01/11 01:19:04;;;;;;;46.50;18.23;;;0.80;99.90;;;;;;5093906;28;20407;-70
2022/01/11 01:21:36;;;;;;;31.00;17.25;;;0.90;99.90;;;;;;5096164;28;20051;-70
2022/01/11 01:24:04;;;;;;;52.03;16.15;;;0.80;99.90;;;;;;5114388;28;20100;-70
2022/01/11 01:26:31;;;;;;;46.28;15.93;;;0.70;99.90;;;;;;5114598;28;20039;-70
2022/01/11 01:28:59;;;;;;;51.55;17.13;;;0.60;99.90;;;;;;5096189;28;20071;-70
2022/01/11 01:31:25;;;;;;;42.00;19.08;;;0.70;99.90;;;;;;5096390;28;20488;-70
2022/01/11 01:33:51;;;;;;;31.88;16.90;;;0.70;99.90;;;;;;5095617;28;20043;-70
2022/01/11 01:36:16;;;;;;;46.75;18.60;;;0.60;99.90;;;;;;5114363;28;20120;-70
2022/01/11 01:38:42;;;;;;;62.53;17.40;;;0.60;99.90;;;;;;5095925;28;20051;-70
2022/01/11 01:41:19;;;;;;;43.03;18.83;;;0.60;99.90;;;;;;5095829;28;20399;-70
2022/01/11 01:43:48;;;;;;;32.80;17.55;;;0.60;99.90;;;;;;5095581;28;20131;-70
2022/01/11 01:46:14;;;;;;;41.33;17.23;;;0.60;99.90;;;;;;5114099;28;20422;-70
2022/01/11 01:48:40;;;;;;;52.17;18.75;;;0.70;99.90;;;;;;5095959;28;20123;-70
2022/01/11 01:51:07;;;;;;;41.67;18.17;;;0.60;99.90;;;;;;5095928;28;20139;-70
2022/01/11 01:53:36;;;;;;;31.77;18.02;;;0.60;99.90;;;;;;5095100;28;20059;-70
2022/01/11 01:56:03;;;;;;;36.28;16.88;;;0.70;99.90;;;;;;5095561;28;20051;-70
2022/01/11 01:58:29;;;;;;;44.05;18.27;;;0.70;99.90;;;;;;5095518;28;20044;-70
2022/01/11 02:01:02;;;;;;;56.65;18.02;;;0.70;99.90;;;;;;5113744;28;20440;-70
2022/01/11 02:03:30;;;;;;;40.65;17.70;;;0.70;99.90;;;;;;5095074;28;20071;-70
2022/01/11 02:05:57;;;;;;;42.50;19.05;;;0.60;99.90;;;;;;5095164;28;20112;-70
2022/01/11 02:08:24;;;;;;;35.83;17.30;;;0.70;99.90;;;;;;5095386;28;20058;-70
2022/01/11 02:10:50;;;;;;;49.38;17.83;;;0.60;99.90;;;;;;5095388;28;20040;-70
2022/01/11 02:13:16;;;;;;;53.72;17.38;;;0.60;99.90;;;;;;5095027;28;20062;-70
2022/01/11 02:15:42;;;;;;;49.05;17.55;;;0.60;99.90;;;;;;5095574;28;20044;-70
2022/01/11 02:18:18;;;;;;;50.78;19.27;;;0.60;99.90;;;;;;5113501;28;20108;-70
2022/01/11 02:20:45;;;;;;;52.78;18.35;;;0.60;99.90;;;;;;5095386;28;20101;-70
2022/01/11 02:23:16;;;;;;;40.03;17.95;;;0.70;99.90;;;;;;5094753;28;20047;-70
2022/01/11 02:25:42;;;;;;;43.25;19.63;;;0.60;99.90;;;;;;5113384;28;20083;-70
2022/01/11 02:28:10;;;;;;;64.18;19.38;;;0.60;99.90;;;;;;5113298;28;20549;-70
2022/01/11 02:30:36;;;;;;;45.38;19.13;;;0.40;99.90;;;;;;5094050;28;20075;-70
2022/01/11 02:33:05;;;;;;;40.35;19.65;;;0.60;99.90;;;;;;5112718;28;20565;-70
2022/01/11 02:35:31;;;;;;;74.15;19.42;;;0.60;99.90;;;;;;5113243;28;20457;-70
2022/01/11 02:37:57;;;;;;;37.63;19.17;;;0.50;99.90;;;;;;5094831;28;20075;-70
2022/01/11 02:40:23;;;;;;;75.50;19.98;;;0.60;99.90;;;;;;5113094;28;20399;-70
2022/01/11 02:42:48;;;;;;;44.35;18.92;;;0.80;99.90;;;;;;5112759;28;20035;-70
2022/01/11 02:45:20;;;;;;;63.28;18.45;;;0.60;99.90;;;;;;5094998;28;20043;-70
2022/01/11 02:47:48;;;;;;;72.75;20.95;;;0.60;99.90;;;;;;5112876;28;20040;-70
2022/01/11 02:50:15;;;;;;;43.65;17.65;;;0.50;99.90;;;;;;5094880;28;20058;-70
2022/01/11 02:52:41;;;;;;;75.80;18.52;;;0.50;99.90;;;;;;5094300;28;20403;-70
2022/01/11 02:55:10;;;;;;;66.55;18.92;;;0.60;99.90;;;;;;5112758;28;20047;-70
2022/01/11 02:57:36;;;;;;;58.33;19.73;;;0.60;99.90;;;;;;5094861;28;20050;-70
2022/01/11 03:00:06;;;;;;;74.50;20.00;;;0.60;99.90;;;;;;5094902;28;20055;-71
2022/01/11 03:02:32;;;;;;;59.08;18.60;;;0.50;99.90;;;;;;5112982;28;20738;-70
2022/01/11 03:04:57;;;;;;;62.08;18.33;;;0.50;99.90;;;;;;5113162;28;20035;-70
2022/01/11 03:07:23;;;;;;;47.67;16.40;;;0.50;99.90;;;;;;5095058;28;20036;-70
2022/01/11 03:10:34;;;;;;;81.53;17.58;;;0.50;99.90;;;;;;5112641;28;20039;-70
2022/01/11 03:12:35;;;;;;;56.55;17.98;;;0.50;99.90;;;;;;5086978;28;20048;-70
2022/01/11 03:15:01;;;;;;;43.78;17.05;;;0.50;99.90;;;;;;5112504;28;20050;-70
2022/01/11 03:17:27;;;;;;;39.47;16.67;;;0.40;99.90;;;;;;5112416;28;20499;-70
2022/01/11 03:19:53;;;;;;;48.47;17.15;;;0.40;99.90;;;;;;5112369;28;20043;-70
2022/01/11 03:22:19;;;;;;;46.95;17.02;;;0.40;99.90;;;;;;5093676;28;20047;-70
2022/01/11 03:24:45;;;;;;;30.20;16.38;;;0.40;99.90;;;;;;5093995;28;20488;-70
2022/01/11 03:27:11;;;;;;;44.00;15.63;;;0.50;99.90;;;;;;5094072;28;20071;-70
2022/01/11 03:29:40;;;;;;;46.45;16.23;;;0.40;99.90;;;;;;5093970;28;20043;-70
2022/01/11 03:32:06;;;;;;;46.05;15.60;;;0.40;99.90;;;;;;5093728;28;20043;-71
2022/01/11 03:34:32;;;;;;;44.22;16.95;;;0.30;99.90;;;;;;5093678;28;20048;-70
2022/01/11 03:36:58;;;;;;;50.10;16.27;;;0.30;99.90;;;;;;5093844;28;20093;-70
2022/01/11 03:39:25;;;;;;;43.83;17.65;;;0.30;99.90;;;;;;5112111;28;20043;-70
2022/01/11 03:41:51;;;;;;;30.13;17.15;;;0.30;99.90;;;;;;5093026;28;20031;-70
2022/01/11 03:44:16;;;;;;;42.28;17.23;;;0.30;99.90;;;;;;5093630;28;20036;-70
2022/01/11 03:46:42;;;;;;;42.42;18.27;;;0.20;99.90;;;;;;5093581;28;20047;-70
2022/01/11 03:49:08;;;;;;;36.90;17.08;;;0.30;99.90;;;;;;5112126;28;20499;-70
2022/01/11 03:51:37;;;;;;;48.13;17.13;;;0.20;99.90;;;;;;5111552;28;20054;-70
2022/01/11 03:54:10;;;;;;;36.00;18.17;;;0.30;99.90;;;;;;5093309;28;20044;-70
2022/01/11 03:56:36;;;;;;;42.17;18.60;;;0.30;99.90;;;;;;5093529;28;20499;-70
2022/01/11 03:59:06;;;;;;;57.53;18.30;;;0.30;99.90;;;;;;5093247;28;20090;-70
2022/01/11 04:01:36;;;;;;;37.85;18.38;;;0.20;99.90;;;;;;5111441;28;20044;-70
2022/01/11 04:04:03;;;;;;;57.13;19.13;;;0.40;99.90;;;;;;5093088;28;20487;-70
2022/01/11 04:06:28;;;;;;;39.67;18.45;;;0.30;99.90;;;;;;5093236;28;20123;-70
2022/01/11 04:08:54;;;;;;;44.38;18.08;;;0.40;99.90;;;;;;5093270;28;20177;-70
2022/01/11 04:11:20;;;;;;;46.55;20.25;;;0.40;99.90;;;;;;5093177;28;20373;-70
2022/01/11 04:13:46;;;;;;;40.50;18.33;;;0.30;99.90;;;;;;5093194;28;20052;-70
2022/01/11 04:16:12;;;;;;;40.15;18.25;;;0.50;99.90;;;;;;5093849;28;20043;-71
2022/01/11 04:18:38;;;;;;;40.88;20.80;;;0.40;99.90;;;;;;5112283;28;20035;-71
2022/01/11 04:21:04;;;;;;;46.97;20.50;;;0.50;99.90;;;;;;5094197;28;20032;-70
2022/01/11 04:23:30;;;;;;;54.88;20.52;;;0.40;99.90;;;;;;5093748;28;20043;-70
2022/01/11 04:25:56;;;;;;;50.33;19.33;;;0.40;99.90;;;;;;5093913;28;20040;-70
2022/01/11 04:28:25;;;;;;;43.80;20.23;;;0.40;99.90;;;;;;5111463;28;20050;-70
2022/01/11 04:30:52;;;;;;;50.90;20.65;;;0.50;99.90;;;;;;5111451;28;20395;-70
2022/01/11 04:33:19;;;;;;;47.10;20.83;;;0.50;99.90;;;;;;5093068;28;20437;-71
2022/01/11 04:35:48;;;;;;;52.45;21.40;;;0.60;99.90;;;;;;5093453;28;20096;-71
2022/01/11 04:38:17;;;;;;;95.85;22.73;;;0.60;99.90;;;;;;5092644;28;20051;-71
2022/01/11 04:40:43;;;;;;;47.85;22.02;;;0.50;99.90;;;;;;5111047;28;20056;-71
2022/01/11 04:43:08;;;;;;;52.80;21.30;;;0.50;99.90;;;;;;5092472;28;20110;-70
2022/01/11 04:45:34;;;;;;;48.78;21.80;;;0.50;99.90;;;;;;5092942;28;20119;-71
2022/01/11 04:48:00;;;;;;;49.88;21.27;;;0.50;99.90;;;;;;5092811;28;20046;-70
2022/01/11 04:50:27;;;;;;;46.60;19.73;;;0.50;99.90;;;;;;5111104;28;20039;-70
2022/01/11 04:52:53;;;;;;;49.72;20.98;;;0.50;99.90;;;;;;5092418;28;20051;-70
2022/01/11 04:55:20;;;;;;;45.63;21.77;;;0.50;99.90;;;;;;5096654;28;20052;-70
2022/01/11 04:57:46;;;;;;;55.83;19.77;;;0.40;99.90;;;;;;5114999;28;20043;-70
2022/01/11 05:00:13;;;;;;;59.78;21.40;;;0.40;99.90;;;;;;5096833;28;20377;-70
2022/01/11 05:02:39;;;;;;;46.20;20.73;;;0.40;99.90;;;;;;5114810;28;20049;-70
2022/01/11 05:05:05;;;;;;;50.70;20.98;;;0.40;99.90;;;;;;5096955;28;20107;-70
2022/01/11 05:07:33;;;;;;;47.78;21.38;;;0.40;99.90;;;;;;5114992;28;20471;-70
2022/01/11 05:09:59;;;;;;;59.90;23.35;;;0.40;99.90;;;;;;5114954;28;20131;-70
2022/01/11 05:12:25;;;;;;;50.42;23.00;;;0.50;99.90;;;;;;5096170;28;20515;-70
2022/01/11 05:14:50;;;;;;;70.50;24.70;;;0.50;99.90;;;;;;5096513;28;20042;-70
2022/01/11 05:17:16;;;;;;;65.60;24.33;;;0.50;99.90;;;;;;5096540;28;20075;-71
2022/01/11 05:19:42;;;;;;;64.70;26.63;;;0.60;99.90;;;;;;5096393;28;20092;-70
2022/01/11 05:22:07;;;;;;;61.90;26.75;;;0.60;99.90;;;;;;5096233;28;20548;-70
2022/01/11 05:24:33;;;;;;;63.08;25.00;;;0.60;99.90;;;;;;5096380;28;20080;-70
2022/01/11 05:26:59;;;;;;;68.75;25.38;;;0.60;99.90;;;;;;5096322;28;20042;-71
2022/01/11 05:29:24;;;;;;;70.22;26.20;;;0.70;99.90;;;;;;5114440;28;20028;-71
2022/01/11 05:31:50;;;;;;;80.55;26.38;;;0.70;99.90;;;;;;5114130;28;20044;-70
2022/01/11 05:34:16;;;;;;;68.05;27.20;;;0.60;99.90;;;;;;5095948;28;20039;-70
2022/01/11 05:36:41;;;;;;;61.25;26.00;;;0.60;99.90;;;;;;5114335;28;20035;-70
2022/01/11 05:39:07;;;;;;;71.78;27.75;;;0.60;99.90;;;;;;5114192;28;20055;-71
2022/01/11 05:41:33;;;;;;;57.30;25.90;;;0.70;99.90;;;;;;5114019;28;20047;-70
2022/01/11 05:43:58;;;;;;;78.85;27.33;;;0.70;99.90;;;;;;5114045;28;20545;-70
2022/01/11 05:46:26;;;;;;;68.60;27.13;;;0.70;99.90;;;;;;5114167;28;20039;-70
2022/01/11 05:48:52;;;;;;;67.93;28.92;;;0.70;99.90;;;;;;5095710;28;20087;-70
2022/01/11 05:51:18;;;;;;;74.65;28.40;;;0.70;99.90;;;;;;5096033;28;20083;-69
2022/01/11 05:53:44;;;;;;;74.30;28.70;;;0.70;99.90;;;;;;5095342;28;20043;-70
2022/01/11 05:56:10;;;;;;;74.60;27.35;;;0.70;99.90;;;;;;5095967;28;20043;-70
2022/01/11 05:58:35;;;;;;;66.68;27.95;;;0.60;99.90;;;;;;5078609;28;20044;-70
2022/01/11 06:01:01;;;;;;;72.88;27.55;;;0.60;99.90;;;;;;5095674;28;20453;-70
2022/01/11 06:03:27;;;;;;;73.47;27.73;;;0.60;99.90;;;;;;5095418;28;20040;-70
2022/01/11 06:05:53;;;;;;;84.78;27.13;;;0.60;99.90;;;;;;5095384;28;20092;-70
2022/01/11 06:08:19;;;;;;;74.30;26.85;;;0.50;99.90;;;;;;5113804;28;20044;-70
2022/01/11 06:10:46;;;;;;;80.63;26.35;;;0.50;99.90;;;;;;5113721;28;20527;-69
2022/01/11 06:13:12;;;;;;;65.20;25.50;;;0.50;99.90;;;;;;5095121;28;20051;-70
2022/01/11 06:15:38;;;;;;;76.57;25.70;;;0.50;99.90;;;;;;5095266;28;20044;-70
2022/01/11 06:18:05;;;;;;;67.45;26.15;;;0.50;99.90;;;;;;5095139;28;20452;-71
2022/01/11 06:20:33;;;;;;;68.18;28.13;;;0.50;99.90;;;;;;5095151;28;20043;-71
2022/01/11 06:22:59;;;;;;;66.68;26.73;;;0.50;99.90;;;;;;5094856;28;20051;-70
2022/01/11 06:25:25;;;;;;;81.68;29.77;;;0.50;99.90;;;;;;5095301;28;20545;-70
2022/01/11 06:27:51;;;;;;;82.43;30.00;;;0.50;99.90;;;;;;5095015;28;20114;-71
2022/01/11 06:30:17;;;;;;;75.45;28.20;;;0.50;99.90;;;;;;5113256;28;20406;-70
2022/01/11 06:32:44;;;;;;;75.75;28.73;;;0.50;99.90;;;;;;5094562;28;20096;-70
2022/01/11 06:35:11;;;;;;;78.47;28.63;;;0.50;99.90;;;;;;5094734;28;20071;-71
2022/01/11 06:37:36;;;;;;;89.40;31.92;;;0.50;99.90;;;;;;5094745;28;20096;-70
2022/01/11 06:40:05;;;;;;;72.05;28.60;;;0.50;99.90;;;;;;5112934;28;20048;-70
2022/01/11 06:42:32;;;;;;;76.22;29.70;;;0.50;99.90;;;;;;5094271;28;20035;-70
2022/01/11 06:44:57;;;;;;;62.42;26.90;;;0.60;99.90;;;;;;5094640;28;20086;-70
2022/01/11 06:47:23;;;;;;;64.13;26.77;;;0.60;99.90;;;;;;5094550;28;20508;-70
2022/01/11 06:49:49;;;;;;;70.57;26.42;;;0.60;99.90;;;;;;5094612;28;20126;-70
2022/01/11 06:52:14;;;;;;;64.03;28.10;;;0.60;99.90;;;;;;5112284;28;20114;-70
2022/01/11 06:54:41;;;;;;;69.45;27.25;;;0.60;99.90;;;;;;5094537;28;20051;-71
2022/01/11 06:57:08;;;;;;;70.40;26.42;;;0.70;99.90;;;;;;5094337;28;20044;-70
2022/01/11 06:59:37;;;;;;;66.95;27.60;;;0.80;99.90;;;;;;5112757;28;20038;-70
2022/01/11 07:02:06;;;;;;;49.85;24.33;;;0.70;99.90;;;;;;5112244;28;20419;-70
2022/01/11 07:04:33;;;;;;;60.45;24.55;;;0.70;99.90;;;;;;5094375;28;20505;-70
2022/01/11 07:06:59;;;;;;;54.33;24.65;;;0.70;99.90;;;;;;5112462;28;20031;-70
2022/01/11 07:09:24;;;;;;;59.15;24.13;;;0.70;99.90;;;;;;5094161;28;20040;-70
2022/01/11 07:11:50;;;;;;;54.38;22.73;;;0.70;99.90;;;;;;5093703;28;20051;-70
2022/01/11 07:14:16;;;;;;;50.78;22.33;;;0.60;99.90;;;;;;5094292;28;20047;-70
2022/01/11 07:16:43;;;;;;;48.60;22.55;;;0.60;99.90;;;;;;5111825;28;20407;-70
2022/01/11 07:19:09;;;;;;;50.10;23.08;;;0.70;99.90;;;;;;5093956;28;20522;-69
2022/01/11 07:21:35;;;;;;;53.28;22.98;;;0.60;99.90;;;;;;5111973;28;20107;-70
2022/01/11 07:24:02;;;;;;;54.00;22.40;;;0.50;99.90;;;;;;5109904;28;20570;-70
2022/01/11 07:26:28;;;;;;;46.33;20.30;;;0.50;99.90;;;;;;5093264;28;20544;-70
2022/01/11 07:28:53;;;;;;;49.55;20.63;;;0.50;99.90;;;;;;5093145;28;20114;-70
2022/01/11 07:31:19;;;;;;;45.75;19.85;;;0.50;99.90;;;;;;5093721;28;20075;-70
2022/01/11 07:33:44;;;;;;;49.13;19.83;;;0.50;99.90;;;;;;5090972;28;20138;-70
2022/01/11 07:36:11;;;;;;;42.40;19.35;;;0.50;99.90;;;;;;5093017;28;20043;-70
2022/01/11 07:38:36;;;;;;;47.22;17.92;;;0.50;99.90;;;;;;5092744;28;20050;-69
2022/01/11 07:41:02;;;;;;;46.38;19.48;;;0.60;99.90;;;;;;5092888;28;20048;-70
2022/01/11 07:43:27;;;;;;;43.40;18.50;;;0.60;99.90;;;;;;5110578;28;20464;-70
2022/01/11 07:45:53;;;;;;;41.50;18.65;;;0.70;99.90;;;;;;5093669;28;20118;-70
2022/01/11 07:48:18;;;;;;;44.00;18.30;;;0.70;99.90;;;;;;5111748;28;20124;-70
2022/01/11 07:50:44;;;;;;;36.30;18.40;;;0.60;99.90;;;;;;5093526;28;20039;-70
2022/01/11 07:53:09;;;;;;;44.38;19.27;;;0.50;99.90;;;;;;5111446;28;20028;-70
2022/01/11 07:55:35;;;;;;;42.75;17.23;;;0.60;99.90;;;;;;5116241;27;20091;-70
2022/01/11 07:58:00;;;;;;;41.53;17.73;;;0.60;99.90;;;;;;5131917;27;20039;-69
2022/01/11 08:00:26;;;;;;;45.55;19.83;;;0.50;99.90;;;;;;5113935;27;20035;-69
2022/01/11 08:02:52;;;;;;;40.22;18.70;;;0.50;99.90;;;;;;5131664;27;20042;-69
2022/01/11 08:05:18;;;;;;;42.63;18.58;;;0.40;99.90;;;;;;5113735;27;20039;-69
2022/01/11 08:07:44;;;;;;;43.45;19.02;;;0.40;99.90;;;;;;5096641;27;20039;-69
2022/01/11 08:10:11;;;;;;;39.20;18.95;;;0.40;99.90;;;;;;5113532;27;20160;-69
2022/01/11 08:12:38;;;;;;;39.10;17.92;;;0.50;99.90;;;;;;5096135;27;20043;-69
2022/01/11 08:15:04;;;;;;;43.03;19.70;;;0.40;99.90;;;;;;5113864;27;20046;-70
2022/01/11 08:17:31;;;;;;;42.00;19.20;;;0.50;99.90;;;;;;5113543;27;20039;-70
2022/01/11 08:19:57;;;;;;;44.10;18.35;;;0.60;99.90;;;;;;5131886;27;20043;-70
2022/01/11 08:22:23;;;;;;;35.58;18.05;;;0.70;99.90;;;;;;5113427;28;20507;-69
2022/01/11 08:24:48;;;;;;;45.58;18.23;;;0.70;99.90;;;;;;5113374;28;20050;-70
2022/01/11 08:27:14;;;;;;;38.20;17.67;;;0.50;99.90;;;;;;5131780;28;20069;-70
2022/01/11 08:29:40;;;;;;;39.08;17.15;;;0.60;99.90;;;;;;5116023;27;20039;-70
2022/01/11 08:32:07;;;;;;;36.70;16.80;;;0.50;99.90;;;;;;5117296;27;20586;-70
2022/01/11 08:34:33;;;;;;;36.78;18.67;;;0.60;99.90;;;;;;5117493;27;20074;-70
2022/01/11 08:36:59;;;;;;;45.35;18.70;;;0.70;99.90;;;;;;5117590;27;20046;-70
2022/01/11 08:39:26;;;;;;;36.30;17.15;;;0.70;99.90;;;;;;5100488;27;20088;-70
2022/01/11 08:41:52;;;;;;;37.83;18.25;;;0.60;99.90;;;;;;5126749;27;20035;-70
2022/01/11 08:44:22;;;;;;;37.65;16.55;;;0.60;99.90;;;;;;5130775;27;20038;-70
2022/01/11 08:46:48;;;;;;;42.00;19.02;;;0.60;99.90;;;;;;5122656;27;20499;-70
2022/01/11 08:49:14;;;;;;;41.63;18.80;;;0.70;99.90;;;;;;5122898;27;20039;-69
2022/01/11 08:51:40;;;;;;;35.60;17.10;;;0.80;99.90;;;;;;5115759;27;20097;-69
2022/01/11 08:54:06;;;;;;;34.47;15.88;;;0.80;99.90;;;;;;5102693;28;20079;-70
2022/01/11 08:56:32;;;;;;;37.17;16.35;;;0.80;99.90;;;;;;5114589;28;20139;-70
2022/01/11 08:58:58;;;;;;;33.65;15.70;;;0.80;99.90;;;;;;5096437;28;20151;-70
2022/01/11 09:01:28;;;;;;;34.30;17.27;;;0.90;99.90;;;;;;5096435;28;20045;-70
2022/01/11 09:03:53;;;;;;;34.67;16.17;;;0.90;99.90;;;;;;5095954;28;20074;-70
2022/01/11 09:06:19;;;;;;;35.90;17.05;;;1.10;99.90;;;;;;5109897;27;20062;-70
2022/01/11 09:08:45;;;;;;;35.35;17.10;;;1.10;99.90;;;;;;5116800;27;20057;-70
2022/01/11 09:11:11;;;;;;;34.38;16.33;;;1.00;99.90;;;;;;5116565;27;20087;-70
2022/01/11 09:13:37;;;;;;;34.78;16.90;;;1.00;99.90;;;;;;5116433;27;20043;-70
2022/01/11 09:16:05;;;;;;;28.63;14.68;;;1.00;99.90;;;;;;5116605;27;20047;-69
2022/01/11 09:18:31;;;;;;;33.80;15.23;;;0.90;99.90;;;;;;5116493;27;20091;-70
2022/01/11 09:21:00;;;;;;;29.00;15.13;;;1.10;99.90;;;;;;5116598;27;20118;-69
2022/01/11 09:23:26;;;;;;;32.50;15.50;;;1.10;99.90;;;;;;5115774;27;20138;-71
2022/01/11 09:25:52;;;;;;;26.05;14.05;;;1.10;99.90;;;;;;5116041;27;20176;-70
2022/01/11 09:28:17;;;;;;;33.55;16.30;;;1.10;99.90;;;;;;5134772;27;20125;-70
2022/01/11 09:30:43;;;;;;;34.03;15.88;;;1.10;99.90;;;;;;5134736;27;20042;-69
2022/01/11 09:33:09;;;;;;;36.85;16.63;;;1.30;99.90;;;;;;5121247;27;20505;-70
2022/01/11 09:35:34;;;;;;;39.13;16.25;;;1.10;99.90;;;;;;5139823;27;20038;-70
2022/01/11 09:38:00;;;;;;;32.78;15.73;;;1.20;99.90;;;;;;5134554;27;20070;-70
2022/01/11 09:40:26;;;;;;;31.13;15.77;;;1.20;99.90;;;;;;5115711;27;20050;-70
2022/01/11 09:42:53;;;;;;;36.83;16.98;;;1.20;99.90;;;;;;5129492;27;20042;-70
2022/01/11 09:45:20;;;;;;;31.20;15.63;;;1.20;99.90;;;;;;5112558;28;20043;-70
2022/01/11 09:47:47;;;;;;;32.17;15.05;;;1.20;99.90;;;;;;5113317;28;20032;-70
2022/01/11 09:50:14;;;;;;;26.90;13.77;;;1.20;99.90;;;;;;5113733;28;20407;-70
2022/01/11 09:52:40;;;;;;;29.50;15.48;;;1.20;99.90;;;;;;5113132;28;20051;-70
2022/01/11 09:55:08;;;;;;;30.27;15.18;;;1.20;99.90;;;;;;5095095;28;20043;-70
2022/01/11 09:57:34;;;;;;;30.50;14.95;;;1.30;99.90;;;;;;5113231;28;20056;-70
2022/01/11 10:00:00;;;;;;;29.25;14.40;;;1.30;99.90;;;;;;5095168;28;20036;-70
2022/01/11 10:02:25;;;;;;;26.48;14.43;;;1.30;99.90;;;;;;5094693;28;20035;-70
2022/01/11 10:05:05;;;;;;;27.88;15.07;;;1.40;99.90;;;;;;5095155;28;20047;-70
2022/01/11 10:07:42;;;;;;;29.48;14.93;;;1.40;99.90;;;;;;5113409;28;20047;-70
2022/01/11 10:10:12;;;;;;;28.17;15.23;;;1.40;99.90;;;;;;5113391;28;20038;-70
2022/01/11 10:12:46;;;;;;;30.73;14.75;;;1.50;99.90;;;;;;5112907;28;20043;-70
2022/01/11 10:15:12;;;;;;;35.92;17.08;;;1.50;99.90;;;;;;5094674;28;20059;-69
2022/01/11 10:17:40;;;;;;;29.35;15.40;;;1.50;99.90;;;;;;5094985;28;20047;-70
2022/01/11 10:20:13;;;;;;;31.05;14.85;;;1.50;99.90;;;;;;5113256;28;20050;-70
2022/01/11 10:22:56;;;;;;;33.53;16.67;;;1.60;99.90;;;;;;5094616;28;20040;-70
2022/01/11 10:25:22;;;;;;;;;;;1.60;99.90;;;;;;5094919;28;20044;-70
2022/01/11 10:27:56;;;;;;;27.48;15.13;;;1.60;99.90;;;;;;5095032;28;19926;-70
2022/01/11 10:30:23;;;;;;;28.58;14.30;;;1.60;99.90;;;;;;5095003;28;20058;-70
2022/01/11 10:32:50;;;;;;;33.08;15.73;;;1.60;99.90;;;;;;5112590;28;20032;-70
2022/01/11 10:35:20;;;;;;;29.10;13.73;;;1.60;99.90;;;;;;5103569;27;20046;-70
2022/01/11 10:37:48;;;;;;;29.67;15.27;;;1.60;99.90;;;;;;5133034;27;20043;-70
2022/01/11 10:40:20;;;;;;;29.23;15.13;;;1.70;99.90;;;;;;5120490;27;20137;-70
2022/01/11 10:42:53;;;;;;;32.45;13.57;;;1.70;99.90;;;;;;5115051;27;20035;-69
2022/01/11 10:45:25;;;;;;;27.85;14.30;;;1.70;99.90;;;;;;5132271;27;20035;-70
2022/01/11 10:47:54;;;;;;;30.55;14.35;;;1.70;99.90;;;;;;5113388;27;20678;-70
2022/01/11 10:50:30;;;;;;;29.05;15.40;;;1.70;99.90;;;;;;5133953;27;20160;-70
2022/01/11 10:53:10;;;;;;;31.02;14.48;;;1.70;99.90;;;;;;5115299;27;20110;-70
2022/01/11 10:55:37;;;;;;;32.08;16.00;;;1.70;99.90;;;;;;5115113;27;20058;-69
2022/01/11 10:58:05;;;;;;;31.20;14.73;;;1.70;99.90;;;;;;5115800;27;20126;-70
2022/01/11 11:00:32;;;;;;;30.50;14.40;;;1.70;99.90;;;;;;5116152;27;20621;-69
2022/01/11 11:03:12;;;;;;;33.17;15.30;;;1.80;99.90;;;;;;5134651;27;20039;-70
2022/01/11 11:05:52;;;;;;;34.42;16.13;;;1.80;99.90;;;;;;5126317;27;20043;-69
2022/01/11 11:08:30;;;;;;;29.42;14.80;;;1.90;99.90;;;;;;5093982;28;20051;-70
2022/01/11 11:10:56;;;;;;;31.00;14.57;;;1.90;99.90;;;;;;5094192;28;20100;-69
2022/01/11 11:13:29;;;;;;;32.33;15.90;;;1.90;99.90;;;;;;5111723;28;20043;-71
2022/01/11 11:15:58;;;;;;;35.97;14.90;;;2.00;99.90;;;;;;5093788;28;20040;-71
2022/01/11 11:18:38;;;;;;;33.92;17.10;;;2.10;99.90;;;;;;5093991;28;20077;-71
2022/01/11 11:21:26;;;;;;;34.08;15.70;;;2.10;99.90;;;;;;5112140;28;20043;-71
2022/01/11 11:23:58;;;;;;;36.20;15.27;;;2.10;99.90;;;;;;5093346;28;20135;-71
2022/01/11 11:26:26;;;;;;;40.38;16.70;;;2.20;99.90;;;;;;5093880;28;20510;-70
2022/01/11 11:28:53;;;;;;;38.75;16.40;;;2.20;99.90;;;;;;5076608;28;20043;-71
2022/01/11 11:31:19;;;;;;;38.55;16.52;;;2.20;99.90;;;;;;5093964;28;20403;-71
2022/01/11 11:33:46;;;;;;;30.98;15.00;;;2.20;99.90;;;;;;5093192;28;20051;-71
2022/01/11 11:36:15;;;;;;;32.15;15.13;;;2.20;99.90;;;;;;5100367;28;20404;-70
2022/01/11 11:38:56;;;;;;;35.47;14.75;;;2.20;99.90;;;;;;5076634;28;20047;-70
2022/01/11 11:41:26;;;;;;;33.95;15.70;;;2.30;99.90;;;;;;5095685;27;20048;-69
2022/01/11 11:44:18;;;;;;;34.20;16.00;;;2.30;99.90;;;;;;5110370;27;20131;-70
2022/01/11 11:46:54;;;;;;;38.95;15.38;;;2.30;99.90;;;;;;5093369;28;20043;-69
2022/01/11 11:49:44;;;;;;;34.38;15.68;;;2.30;99.90;;;;;;5093627;28;20039;-69
2022/01/11 11:52:31;;;;;;;39.95;15.45;;;2.30;99.90;;;;;;5093191;28;20044;-69
2022/01/11 11:55:10;;;;;;;36.30;14.48;;;2.30;99.90;;;;;;5093410;28;20054;-69
2022/01/11 11:57:42;;;;;;;35.38;15.82;;;2.30;99.90;;;;;;5111614;28;20043;-70
2022/01/11 12:00:14;;;;;;;36.35;14.73;;;2.40;99.90;;;;;;5093484;28;20480;-69
2022/01/11 12:02:45;;;;;;;32.30;14.98;;;2.40;99.90;;;;;;5093339;28;20046;-69
2022/01/11 12:05:28;;;;;;;34.22;15.30;;;2.40;99.90;;;;;;5111638;28;20039;-69
2022/01/11 12:07:54;;;;;;;38.55;15.73;;;2.50;99.90;;;;;;5112306;28;20438;-69
2022/01/11 12:10:29;;;;;;;39.03;15.32;;;2.60;99.90;;;;;;5093989;28;20044;-69
2022/01/11 12:12:55;;;;;;;30.77;13.77;;;2.60;99.90;;;;;;5111490;28;20035;-69
2022/01/11 12:15:34;;;;;;;32.70;15.23;;;2.70;99.90;;;;;;5111566;28;20048;-69
2022/01/11 12:17:59;;;;;;;33.35;14.32;;;2.70;99.90;;;;;;5076201;28;20126;-69
2022/01/11 12:20:41;;;;;;;35.35;14.30;;;2.70;99.90;;;;;;5093349;28;20498;-70
2022/01/11 12:23:08;;;;;;;36.83;15.07;;;2.80;99.90;;;;;;5092757;28;20050;-69
2022/01/11 12:25:38;;;;;;;33.55;14.20;;;2.80;99.90;;;;;;5093069;28;20035;-69
2022/01/11 12:28:06;;;;;;;31.88;14.55;;;2.80;99.90;;;;;;5092984;28;20059;-69
2022/01/11 12:30:33;;;;;;;32.35;14.48;;;2.80;99.90;;;;;;5092969;28;20043;-69
2022/01/11 12:33:19;;;;;;;37.38;15.95;;;2.90;99.90;;;;;;5092633;28;20043;-70
2022/01/11 12:36:04;;;;;;;33.47;14.70;;;2.90;99.90;;;;;;5093355;28;20083;-70
2022/01/11 12:38:37;;;;;;;42.10;15.05;;;3.00;99.90;;;;;;5111261;28;20523;-69
2022/01/11 12:41:21;;;;;;;;;;;3.10;99.90;;;;;;5093406;28;20553;-70